Airfield :
LOGIN :

Register | Disclaimer

   EN    FR    IT 

 










Legend :    VFR   Marginal VFR   IFR   Intensive IFR   Very Intensive IFR
Visi :
Ceiling :
>= 8 km
>= 3000ft
5 to 8 km
1000 to 3000 ft
1500m to 5 km
500 to 1000 ft
800 to 1500m
200 to 500 ft
< 800m
< 200 ft
Symbols :   Thunderstorms  Fog  Heavy snow  Heavy precipitations  Wind > 20 kt
SIGMETs :     Misc.  Thunderstorms  Icing  Turbulence  Mountain Waves  Volcanic Ashes






- Airport Elevation : 1363 ft


ETIC - Grafenwohr Army Air Field

CURRENT METAR :
  • 201156Z AUTO 00000KT 9999 BKN011 OVC030 05/04 A2995 RMK AO2 CIG 011V030 BKN V SCT SLP159 70001 T00490043 10051 20012 58014 $

EXPIRED METARs :
  • 201110Z 00000KT 9999 SCT010 SCT019 OVC033 05/04 A2996
  • 201056Z AUTO 00000KT 9999 M 04/04 A2997 RMK AO2 SLP168 T00400039 $
  • 201026Z AUTO 00000KT 9999 BKN008 OVC035 04/04 A2998 RMK AO2 BKN V OVC SLP171 $
  • 200956Z AUTO 00000KT 9999 OVC007 03/03 A2999 RMK AO2 SLP175 T00280028 $
  • 200931Z AUTO 29003KT 9999 OVC007 03/03 A3000 RMK AO2 SLP178 $

TAF AMD TAF ETIC
Valid from the 20 at 08:00 until the 21 at 12:00 UTC


200831Z 2008/2112 VRB06KT 9999 BKN007 620307 QNH2999INS
TEMPO 2008/2011 8000 BR BKN010
BECMG 2010/2011 VRB06KT 9999 FEW009 BKN015 620307 QNH2994INS
BECMG 2018/2019 VRB06KT 8000 RA BR BKN015 BKN020 620307 QNH2993INS
BECMG 2023/2024 VRB06KT 6000 BR OVC010 620505 QNH2989INS
BECMG 2101/2102 VRB06KT 6000 BR BKN006 620406 QNH2978INS TX07/2012Z TN01/2107Z



MET'MAP, your aeronautical weather chart ! - Copyright ORBIFLY December 2007 - Disclaimer

ORBIFLY MET'MAP TEAM :

Programming & Development : Alexandra Zaïnal
Concept & Development : Baudouin d'Aumeries
Co-Development & Prog : Marc-Olivier Méhu
Technical & hardware support : Manuel Goepfert

Contact : metmap@orbifly.com




SOURCES & CREDITS :

   NOAA